Time;durP1;ratioP1;P1;durP2;ratioP2;P2;SDS_P1;SDS_P2;PMS_P1;PMS_P2;Temp;Humidity;BMP_temperature;BMP_pressure;BME280_temperature;BME280_humidity;BME280_pressure;Samples;Min_cycle;Max_cycle;Signal;HPM_P1;HPM_P2
2022/08/04 00:02:18;;;;;;;8.95;4.35;;;;;;;;;;5032359;28;20058;-63
2022/08/04 00:04:54;;;;;;;9.45;4.85;;;22.40;99.90;;;;;;5032321;28;20013;-64
2022/08/04 00:07:40;;;;;;;7.50;4.30;;;22.80;99.90;;;;;;5032498;28;20040;-64
2022/08/04 00:10:07;;;;;;;6.45;4.63;;;22.90;99.90;;;;;;5032225;28;20104;-64
2022/08/04 00:12:37;;;;;;;5.13;4.10;;;23.10;99.90;;;;;;5032155;28;20029;-64
2022/08/04 00:15:05;;;;;;;7.07;4.13;;;23.20;99.90;;;;;;5032085;28;20014;-64
2022/08/04 00:17:39;;;;;;;5.90;4.55;;;23.20;99.90;;;;;;5032106;28;20033;-64
2022/08/04 00:20:08;;;;;;;8.15;4.22;;;23.00;99.90;;;;;;5032099;28;20036;-64
2022/08/04 00:22:34;;;;;;;8.35;4.05;;;23.40;99.90;;;;;;5032004;28;20455;-63
2022/08/04 00:25:05;;;;;;;9.52;4.28;;;23.40;99.90;;;;;;5031456;28;20373;-64
2022/08/04 00:27:32;;;;;;;5.53;4.20;;;23.20;99.90;;;;;;5032294;28;20361;-63
2022/08/04 00:29:58;;;;;;;6.07;4.10;;;23.40;99.90;;;;;;5030590;28;20402;-63
2022/08/04 00:32:26;;;;;;;4.53;4.07;;;23.60;99.90;;;;;;5031557;28;20148;-63
2022/08/04 00:34:54;;;;;;;4.18;3.78;;;23.80;99.90;;;;;;5031479;28;20361;-63
2022/08/04 00:37:24;;;;;;;6.28;4.50;;;23.70;99.90;;;;;;5031690;28;20049;-63
2022/08/04 00:39:51;;;;;;;8.75;4.70;;;;;;;;;;5032020;28;20030;-66
2022/08/04 00:42:29;;;;;;;8.82;4.50;;;;;;;;;;5031649;28;20018;-63
2022/08/04 00:44:55;;;;;;;5.75;3.88;;;;;;;;;;5031856;28;20454;-63
2022/08/04 00:47:48;;;;;;;7.25;3.92;;;23.40;99.90;;;;;;5030305;28;20029;-64
2022/08/04 00:50:38;;;;;;;7.57;4.95;;;23.70;99.90;;;;;;5030336;28;20117;-63
2022/08/04 00:53:18;;;;;;;7.55;4.55;;;23.40;99.90;;;;;;5031512;28;20032;-65
2022/08/04 00:55:49;;;;;;;7.53;4.20;;;23.50;99.90;;;;;;5031465;28;20116;-66
2022/08/04 00:58:17;;;;;;;9.32;4.80;;;23.60;99.90;;;;;;5031442;28;20040;-67
2022/08/04 01:00:57;;;;;;;6.55;4.47;;;23.60;99.90;;;;;;5031396;28;20041;-66
2022/08/04 01:04:00;;;;;;;10.55;4.30;;;23.40;99.90;;;;;;5031365;28;20017;-66
2022/08/04 01:06:34;;;;;;;7.60;4.18;;;23.60;99.90;;;;;;5031268;28;20029;-65
2022/08/04 01:09:19;;;;;;;7.50;4.70;;;23.60;99.90;;;;;;5029990;28;20028;-64
2022/08/04 01:11:59;;;;;;;6.60;4.65;;;23.80;99.90;;;;;;5031561;28;20036;-65
2022/08/04 01:14:43;;;;;;;10.98;4.38;;;23.70;99.90;;;;;;5031310;28;20025;-65
2022/08/04 01:17:19;;;;;;;10.27;4.43;;;23.70;99.90;;;;;;5029778;28;20033;-67
2022/08/04 01:19:57;;;;;;;8.98;4.30;;;23.60;99.90;;;;;;5031127;28;20033;-65
2022/08/04 01:22:29;;;;;;;8.88;5.05;;;;;;;;;;5031410;28;20402;-67
2022/08/04 01:25:03;;;;;;;11.15;4.57;;;23.60;99.90;;;;;;5031076;28;20040;-67
2022/08/04 01:28:01;;;;;;;7.50;4.57;;;23.10;99.90;;;;;;4991740;28;20039;-64
2022/08/04 01:30:27;;;;;;;5.78;4.03;;;23.30;99.90;;;;;;4988235;28;20039;-64
2022/08/04 01:33:16;;;;;;;8.48;4.63;;;23.50;99.90;;;;;;4991891;28;20022;-65
2022/08/04 01:35:53;;;;;;;6.78;4.53;;;23.50;99.90;;;;;;4990904;28;20046;-65
2022/08/04 01:38:32;;;;;;;9.60;4.10;;;23.40;99.90;;;;;;4991590;28;20018;-66
2022/08/04 01:41:03;;;;;;;11.45;5.22;;;23.10;99.90;;;;;;4990320;28;20050;-67
2022/08/04 01:43:29;;;;;;;;;;;23.10;99.90;;;;;;4991988;28;20027;-65
2022/08/04 01:45:58;;;;;;;24.02;9.82;;;22.90;99.90;;;;;;4990943;28;19906;-64
2022/08/04 01:48:25;;;;;;;14.68;6.60;;;22.60;99.90;;;;;;4990208;28;20023;-64
2022/08/04 01:50:53;;;;;;;7.60;4.65;;;22.40;99.90;;;;;;4990126;28;20023;-65
2022/08/04 01:53:20;;;;;;;8.00;5.13;;;22.70;99.90;;;;;;4991326;28;20025;-65
2022/08/04 01:55:51;;;;;;;6.78;5.00;;;22.90;99.90;;;;;;4991229;28;20037;-66
2022/08/04 01:58:18;;;;;;;15.85;6.13;;;23.10;99.90;;;;;;4990066;28;20470;-65
2022/08/04 02:01:01;;;;;;;7.20;5.82;;;22.80;99.90;;;;;;4990926;28;20034;-64
2022/08/04 02:03:28;;;;;;;9.90;6.97;;;22.80;99.90;;;;;;4990001;28;20447;-65
2022/08/04 02:05:59;;;;;;;18.52;7.13;;;;;;;;;;4991149;28;20030;-65
2022/08/04 02:08:59;;;;;;;9.20;6.70;;;22.30;99.90;;;;;;4991501;28;20481;-65
2022/08/04 02:11:25;;;;;;;10.48;5.55;;;22.20;99.90;;;;;;4991092;28;20030;-64
2022/08/04 02:13:57;;;;;;;9.10;5.25;;;22.30;99.90;;;;;;4991054;28;20060;-64
2022/08/04 02:16:44;;;;;;;13.30;6.13;;;22.30;99.90;;;;;;4991014;28;20038;-64
2022/08/04 02:19:23;;;;;;;9.25;5.65;;;22.50;99.90;;;;;;4991073;28;20033;-64
2022/08/04 02:21:56;;;;;;;7.07;5.53;;;22.60;99.90;;;;;;4989756;28;20027;-64
2022/08/04 02:24:26;;;;;;;9.18;6.18;;;22.30;99.90;;;;;;4991014;28;20023;-64
2022/08/04 02:26:55;;;;;;;11.65;6.13;;;22.20;99.90;;;;;;5021988;28;20050;-65
2022/08/04 02:29:44;;;;;;;6.72;5.25;;;22.40;99.90;;;;;;5030168;28;20361;-65
2022/08/04 02:32:24;;;;;;;6.57;5.45;;;22.40;99.90;;;;;;5030182;28;20026;-65
2022/08/04 02:35:02;;;;;;;9.57;5.10;;;22.40;99.90;;;;;;5028835;28;20026;-66
2022/08/04 02:37:33;;;;;;;7.85;5.25;;;22.30;99.90;;;;;;5030008;28;20098;-66
2022/08/04 02:40:00;;;;;;;;;;;22.20;99.90;;;;;;5029217;28;20049;-63
2022/08/04 02:42:30;;;;;;;9.98;5.72;;;22.10;99.90;;;;;;5030006;28;19901;-65
2022/08/04 02:44:57;;;;;;;9.02;4.95;;;22.00;99.90;;;;;;5028694;28;20021;-65
2022/08/04 02:47:25;;;;;;;14.38;4.78;;;22.20;99.90;;;;;;5029925;28;20033;-64
2022/08/04 02:49:51;;;;;;;9.02;5.30;;;22.20;99.90;;;;;;5029924;28;20025;-65
2022/08/04 02:52:19;;;;;;;9.68;5.78;;;22.10;99.90;;;;;;5030180;28;20026;-65
2022/08/04 02:54:50;;;;;;;7.82;5.00;;;22.00;99.90;;;;;;5028570;28;20032;-64
2022/08/04 02:57:17;;;;;;;12.38;5.70;;;21.80;99.90;;;;;;5029796;28;20041;-65
2022/08/04 03:00:02;;;;;;;10.75;5.72;;;;;;;;;;5033061;28;20025;-65
2022/08/04 03:03:00;;;;;;;10.68;5.18;;;21.50;99.90;;;;;;5033244;28;20074;-64
2022/08/04 03:05:47;;;;;;;6.68;4.82;;;21.50;99.90;;;;;;5033206;28;20838;-65
2022/08/04 03:09:14;;;;;;;7.65;5.72;;;21.70;99.90;;;;;;5033277;28;20098;-65
2022/08/04 03:12:00;;;;;;;13.75;5.85;;;21.70;99.90;;;;;;5053762;28;20055;-64
2022/08/04 03:14:45;;;;;;;18.13;6.43;;;21.60;99.90;;;;;;5037175;28;20501;-64
2022/08/04 03:17:38;;;;;;;10.65;6.03;;;21.40;99.90;;;;;;5053854;28;20360;-64
2022/08/04 03:20:06;;;;;;;11.10;6.22;;;21.30;99.90;;;;;;5053827;28;20028;-64
2022/08/04 03:23:05;;;;;;;12.80;5.97;;;21.30;99.90;;;;;;5053703;28;20051;-64
2022/08/04 03:25:49;;;;;;;12.88;6.57;;;21.10;99.90;;;;;;5053535;28;20084;-64
2022/08/04 03:28:27;;;;;;;15.45;7.05;;;;;;;;;;5053571;28;20144;-64
2022/08/04 03:30:53;;;;;;;13.27;6.30;;;;;;;;;;5053591;28;20025;-64
2022/08/04 03:33:38;;;;;;;13.98;6.22;;;;;;;;;;5053475;28;20509;-64
2022/08/04 03:36:04;;;;;;;10.07;7.25;;;;;;;;;;5036691;28;20025;-64
2022/08/04 03:38:42;;;;;;;11.40;5.30;;;;;;;;;;5053514;28;20028;-64
2022/08/04 03:41:44;;;;;;;10.20;5.68;;;21.10;99.90;;;;;;5053621;28;20082;-64
2022/08/04 03:44:35;;;;;;;10.38;5.30;;;21.90;99.90;;;;;;5053390;28;20029;-64
2022/08/04 03:47:42;;;;;;;7.97;4.95;;;21.90;99.90;;;;;;5044960;28;20048;-64
2022/08/04 03:50:33;;;;;;;11.32;4.70;;;22.10;99.90;;;;;;5031820;28;20028;-63
2022/08/04 03:53:17;;;;;;;8.45;5.13;;;22.30;99.90;;;;;;5032474;28;20104;-64
2022/08/04 03:56:20;;;;;;;10.05;5.05;;;22.40;99.90;;;;;;5032340;28;20041;-63
2022/08/04 03:59:22;;;;;;;12.88;5.07;;;22.50;99.90;;;;;;5031154;28;20471;-65
2022/08/04 04:02:25;;;;;;;13.82;5.10;;;22.40;99.90;;;;;;5031107;28;20025;-66
2022/08/04 04:05:11;;;;;;;11.82;5.18;;;22.60;99.90;;;;;;5031027;28;20022;-63
2022/08/04 04:08:14;;;;;;;13.68;4.90;;;22.70;99.90;;;;;;5032289;28;20032;-64
2022/08/04 04:10:58;;;;;;;10.95;5.20;;;22.70;99.90;;;;;;5031954;28;20151;-66
2022/08/04 04:14:08;;;;;;;12.10;6.03;;;22.50;99.90;;;;;;5031934;28;20375;-66
2022/08/04 04:16:52;;;;;;;11.68;6.03;;;22.20;99.90;;;;;;5032070;28;20057;-66
2022/08/04 04:19:51;;;;;;;9.00;4.55;;;22.10;99.90;;;;;;5032329;28;20365;-65
2022/08/04 04:22:32;;;;;;;9.45;5.35;;;22.30;99.90;;;;;;5032064;28;20571;-65
2022/08/04 04:25:15;;;;;;;7.38;4.20;;;22.50;99.90;;;;;;5032071;28;20033;-65
2022/08/04 04:28:03;;;;;;;11.25;4.80;;;22.60;99.90;;;;;;5030699;28;20037;-65
2022/08/04 04:30:44;;;;;;;14.18;5.43;;;22.60;99.90;;;;;;5032111;28;20049;-65
2022/08/04 04:33:16;;;;;;;11.40;5.13;;;22.80;99.90;;;;;;5030670;28;20029;-65
2022/08/04 04:36:28;;;;;;;14.95;4.70;;;22.90;99.90;;;;;;5030439;28;20030;-64
2022/08/04 04:39:01;;;;;;;13.73;5.03;;;22.90;99.90;;;;;;5032033;28;20484;-64
2022/08/04 04:41:50;;;;;;;14.70;4.95;;;22.80;99.90;;;;;;5031768;28;20043;-64
2022/08/04 04:44:46;;;;;;;16.17;5.00;;;22.60;99.90;;;;;;5034197;28;20042;-65
2022/08/04 04:47:39;;;;;;;14.68;5.45;;;22.50;99.90;;;;;;5031316;28;20074;-65
2022/08/04 04:50:05;;;;;;;10.60;5.20;;;22.30;99.90;;;;;;5030571;28;20098;-64
2022/08/04 04:52:57;;;;;;;8.38;5.13;;;22.10;99.90;;;;;;5031494;28;20455;-65
2022/08/04 04:55:32;;;;;;;;;;;21.90;99.90;;;;;;5030657;28;20026;-64
2022/08/04 04:57:59;;;;;;;14.18;5.63;;;21.90;99.90;;;;;;5031713;28;19905;-65
2022/08/04 05:00:56;;;;;;;11.80;5.28;;;21.80;99.90;;;;;;5031499;28;20026;-65
2022/08/04 05:03:59;;;;;;;8.75;5.28;;;21.80;99.90;;;;;;5031110;28;20369;-64
2022/08/04 05:07:06;;;;;;;8.05;4.60;;;21.80;99.90;;;;;;5031031;28;20086;-64
2022/08/04 05:10:02;;;;;;;9.10;5.30;;;21.90;99.90;;;;;;5031244;28;20018;-66
2022/08/04 05:12:51;;;;;;;9.48;4.68;;;21.90;99.90;;;;;;5031427;28;20030;-67
2022/08/04 05:15:19;;;;;;;7.60;4.38;;;22.00;99.90;;;;;;5040081;28;20037;-66
2022/08/04 05:17:56;;;;;;;7.57;3.85;;;22.10;99.90;;;;;;5030954;28;20364;-68
2022/08/04 05:20:28;;;;;;;6.05;4.57;;;22.20;99.90;;;;;;5030217;28;20357;-68
2022/08/04 05:22:59;;;;;;;4.93;4.03;;;22.30;99.90;;;;;;5031393;28;20017;-66
2022/08/04 05:25:53;;;;;;;9.82;4.15;;;22.40;99.90;;;;;;5030704;28;20500;-66
2022/08/04 05:28:40;;;;;;;5.63;3.85;;;22.50;99.90;;;;;;5030975;28;20100;-68
2022/08/04 05:31:18;;;;;;;4.85;4.35;;;22.50;99.90;;;;;;5030931;28;20488;-65
2022/08/04 05:33:55;;;;;;;5.20;3.28;;;22.60;99.90;;;;;;5030919;28;20445;-66
2022/08/04 05:36:29;;;;;;;11.70;4.30;;;22.60;99.90;;;;;;5030834;28;20026;-66
2022/08/04 05:39:00;;;;;;;5.78;3.75;;;22.70;99.90;;;;;;5030794;28;20025;-66
2022/08/04 05:41:27;;;;;;;5.93;3.65;;;22.80;99.90;;;;;;5029498;28;20032;-67
2022/08/04 05:43:55;;;;;;;4.35;4.00;;;22.90;99.90;;;;;;5029712;28;20350;-66
2022/08/04 05:46:21;;;;;;;6.25;3.97;;;22.90;99.90;;;;;;5030370;28;20025;-66
2022/08/04 05:48:48;;;;;;;6.60;3.60;;;23.00;99.90;;;;;;5030637;28;20641;-66
2022/08/04 05:51:15;;;;;;;9.52;3.58;;;23.10;99.90;;;;;;5030571;28;20043;-66
2022/08/04 05:53:43;;;;;;;8.48;3.33;;;23.10;99.90;;;;;;5030547;28;20021;-66
2022/08/04 05:56:14;;;;;;;5.57;3.40;;;23.10;99.90;;;;;;5030340;28;20021;-66
2022/08/04 05:58:41;;;;;;;8.70;3.95;;;23.20;99.90;;;;;;5030570;28;20021;-66
2022/08/04 06:01:10;;;;;;;5.68;3.50;;;23.20;99.90;;;;;;5030502;28;20026;-66
2022/08/04 06:03:37;;;;;;;7.75;3.80;;;23.20;99.90;;;;;;5029115;28;20454;-66
2022/08/04 06:06:04;;;;;;;11.13;3.97;;;23.30;99.90;;;;;;5030127;28;20040;-66
2022/08/04 06:08:30;;;;;;;7.47;3.65;;;23.40;99.90;;;;;;5028996;28;20026;-66
2022/08/04 06:11:04;;;;;;;14.63;4.20;;;23.60;99.90;;;;;;5030311;28;20022;-66
2022/08/04 06:13:38;;;;;;;6.13;3.95;;;23.70;99.90;;;;;;5030295;28;20048;-65
2022/08/04 06:16:06;;;;;;;7.53;4.35;;;23.70;99.90;;;;;;5028899;28;20457;-65
2022/08/04 06:18:35;;;;;;;85.32;11.10;;;23.80;99.90;;;;;;5028901;28;20030;-66
2022/08/04 06:21:03;;;;;;;25.73;6.47;;;;;;;;;;5030277;28;20028;-66
2022/08/04 06:23:30;;;;;;;14.55;4.53;;;23.90;99.90;;;;;;5030085;28;20029;-65
2022/08/04 06:25:59;;;;;;;28.38;5.68;;;24.10;99.90;;;;;;5028487;28;20057;-65
2022/08/04 06:28:26;;;;;;;10.00;3.70;;;;;;;;;;5030032;28;20029;-65
2022/08/04 06:30:54;;;;;;;15.63;6.47;;;;;;;;;;5028798;28;20021;-65
2022/08/04 06:33:26;;;;;;;13.45;5.10;;;;;;;;;;5032820;28;20030;-66
2022/08/04 06:35:55;;;;;;;4.60;3.88;;;;;;;;;;5033638;28;20020;-66
2022/08/04 06:38:23;;;;;;;10.85;3.70;;;;;;;;;;5033528;28;20033;-66
2022/08/04 06:40:49;;;;;;;8.63;4.22;;;;;;;;;;5033518;28;20029;-65
2022/08/04 06:43:16;;;;;;;12.70;3.42;;;;;;;;;;5032185;28;20017;-65
2022/08/04 06:45:43;;;;;;;34.05;6.03;;;;;;;;;;5033439;28;20050;-65
2022/08/04 06:48:12;;;;;;;10.38;4.60;;;;;;;;;;5032170;28;20462;-65
2022/08/04 06:50:38;;;;;;;6.40;4.45;;;;;;;;;;5032205;28;20479;-65
2022/08/04 06:53:05;;;;;;;12.88;4.30;;;;;;;;;;5032135;28;20472;-65
2022/08/04 06:55:31;;;;;;;5.55;3.75;;;;;;;;;;5033210;28;20018;-66
2022/08/04 06:57:58;;;;;;;5.85;4.00;;;;;;;;;;5033456;28;20022;-65
2022/08/04 07:00:25;;;;;;;9.13;3.95;;;;;;;;;;5033268;28;20361;-64
2022/08/04 07:02:52;;;;;;;5.63;3.35;;;;;;;;;;5031993;28;20735;-65
2022/08/04 07:05:19;;;;;;;4.93;3.83;;;;;;;;;;5033111;28;20023;-65
2022/08/04 07:07:45;;;;;;;10.70;4.15;;;;;;;;;;5033110;28;20057;-65
2022/08/04 07:10:12;;;;;;;5.07;3.58;;;;;;;;;;5031916;28;20028;-66
2022/08/04 07:12:39;;;;;;;8.13;3.63;;;;;;;;;;5033027;28;20025;-65
2022/08/04 07:15:06;;;;;;;10.52;4.07;;;;;;;;;;5033246;28;20025;-65
2022/08/04 07:17:34;;;;;;;6.95;3.65;;;;;;;;;;5031331;28;20053;-65
2022/08/04 07:20:00;;;;;;;5.53;3.75;;;;;;;;;;5031687;28;20017;-65
2022/08/04 07:22:26;;;;;;;7.80;4.00;;;;;;;;;;5032518;28;20457;-65
2022/08/04 07:24:57;;;;;;;17.02;4.72;;;;;;;;;;5032837;28;20085;-65
2022/08/04 07:27:24;;;;;;;11.10;3.83;;;;;;;;;;5032325;28;20076;-65
2022/08/04 07:29:51;;;;;;;6.13;3.85;;;;;;;;;;5032480;28;20466;-65
2022/08/04 07:32:19;;;;;;;16.10;4.82;;;;;;;;;;5032631;28;20105;-65
2022/08/04 07:34:46;;;;;;;10.38;3.65;;;;;;;;;;5032603;28;20013;-65
2022/08/04 07:37:12;;;;;;;8.50;3.38;;;;;;;;;;5032241;28;20033;-65
2022/08/04 07:39:39;;;;;;;7.93;3.78;;;;;;;;;;5032583;28;20032;-67
2022/08/04 07:42:05;;;;;;;10.77;3.97;;;;;;;;;;5032286;28;20061;-66
2022/08/04 07:44:32;;;;;;;7.93;4.68;;;;;;;;;;5031744;28;20453;-65
2022/08/04 07:46:58;;;;;;;11.68;4.30;;;;;;;;;;5031609;28;20033;-65
2022/08/04 07:49:25;;;;;;;3.33;3.03;;;;;;;;;;5032516;28;20093;-67
2022/08/04 07:51:52;;;;;;;10.48;4.00;;;;;;;;;;5032225;28;20428;-66
2022/08/04 07:54:18;;;;;;;4.50;3.65;;;;;;;;;;5032406;28;20018;-65
2022/08/04 07:56:44;;;;;;;13.68;4.10;;;;;;;;;;5032237;28;20029;-67
2022/08/04 07:59:10;;;;;;;8.07;3.17;;;;;;;;;;5031046;28;20025;-66
2022/08/04 08:01:37;;;;;;;8.93;3.30;;;25.60;99.90;;;;;;5032316;28;20048;-66
2022/08/04 08:04:05;;;;;;;6.45;3.38;;;;;;;;;;5030907;28;20403;-66
2022/08/04 08:06:31;;;;;;;8.48;3.58;;;28.60;97.90;;;;;;5032186;28;20027;-69
2022/08/04 08:08:59;;;;;;;11.52;4.10;;;;;;;;;;5032144;28;20026;-66
2022/08/04 08:11:26;;;;;;;7.80;3.47;;;28.70;97.20;;;;;;5030906;28;20055;-67
2022/08/04 08:13:52;;;;;;;11.95;3.60;;;28.90;96.00;;;;;;5032399;28;20030;-66
2022/08/04 08:16:19;;;;;;;4.68;3.38;;;29.00;96.10;;;;;;5030836;28;20090;-70
2022/08/04 08:18:46;;;;;;;22.67;7.60;;;;;;;;;;5030984;28;20520;-66
2022/08/04 08:21:13;;;;;;;12.27;4.00;;;;;;;;;;5032071;28;20017;-66
2022/08/04 08:23:39;;;;;;;6.38;3.33;;;29.00;94.80;;;;;;5031922;28;20057;-66
2022/08/04 08:26:05;;;;;;;3.55;2.95;;;;;;;;;;5085241;27;20046;-67
2022/08/04 08:28:32;;;;;;;7.20;3.38;;;;;;;;;;5039099;27;20018;-67
2022/08/04 08:30:58;;;;;;;6.13;3.40;;;29.60;94.30;;;;;;5030376;28;20018;-67
2022/08/04 08:33:24;;;;;;;4.70;3.30;;;29.70;93.80;;;;;;5030562;28;20116;-66
2022/08/04 08:36:16;;;;;;;8.88;3.60;;;29.80;93.60;;;;;;5031567;28;20017;-65
2022/08/04 08:38:54;;;;;;;7.25;3.40;;;29.80;92.40;;;;;;5029396;28;20453;-66
2022/08/04 08:41:30;;;;;;;12.35;3.88;;;29.90;91.90;;;;;;5031659;28;20025;-66
2022/08/04 08:44:30;;;;;;;8.38;2.90;;;30.10;92.40;;;;;;5031537;28;20022;-66
2022/08/04 08:47:34;;;;;;;7.68;3.47;;;30.20;92.70;;;;;;5029812;28;20128;-68
2022/08/04 08:50:17;;;;;;;6.07;3.10;;;30.40;92.00;;;;;;5031281;28;20045;-67
2022/08/04 08:52:52;;;;;;;7.80;3.45;;;30.70;90.90;;;;;;5030159;28;20032;-66
2022/08/04 08:55:55;;;;;;;4.38;2.97;;;30.80;91.00;;;;;;5029029;28;20441;-65
2022/08/04 08:58:56;;;;;;;8.10;3.72;;;31.00;90.30;;;;;;5029546;28;20083;-67
2022/08/04 09:01:25;;;;;;;4.33;2.80;;;31.00;88.60;;;;;;5028912;28;20021;-66
2022/08/04 09:03:54;;;;;;;6.10;2.90;;;31.10;87.10;;;;;;5030878;28;20049;-67
2022/08/04 09:06:38;;;;;;;11.32;3.30;;;31.30;87.50;;;;;;5031079;28;20032;-66
2022/08/04 09:09:24;;;;;;;5.30;3.13;;;31.50;88.00;;;;;;5031130;28;20021;-64
2022/08/04 09:12:08;;;;;;;7.55;3.03;;;31.80;86.80;;;;;;5029375;28;20338;-65
2022/08/04 09:15:02;;;;;;;5.72;3.30;;;31.90;86.60;;;;;;5029722;28;20052;-65
2022/08/04 09:18:09;;;;;;;8.55;2.97;;;32.20;87.70;;;;;;5031037;28;20040;-65
2022/08/04 09:20:54;;;;;;;6.32;2.80;;;;;;;;;;5046709;28;20037;-64
2022/08/04 09:23:32;;;;;;;6.20;2.50;;;32.50;85.60;;;;;;5030415;28;20544;-68
2022/08/04 09:26:11;;;;;;;5.18;2.90;;;32.60;84.30;;;;;;5030693;28;20485;-66
2022/08/04 09:28:52;;;;;;;7.28;2.80;;;32.80;82.20;;;;;;5030918;28;20025;-65
2022/08/04 09:31:27;;;;;;;6.50;2.60;;;33.00;78.90;;;;;;5030490;28;20022;-66
2022/08/04 09:33:59;;;;;;;4.25;2.30;;;;;;;;;;5029510;28;20075;-67
2022/08/04 09:36:36;;;;;;;7.57;2.70;;;;;;;;;;5030554;28;20094;-67
2022/08/04 09:39:18;;;;;;;5.20;2.30;;;33.40;77.50;;;;;;5030922;28;20025;-66
2022/08/04 09:41:52;;;;;;;4.28;2.28;;;33.60;76.70;;;;;;5030774;28;20026;-68
2022/08/04 09:44:51;;;;;;;4.30;1.90;;;33.70;75.40;;;;;;5029347;28;20033;-68
2022/08/04 09:47:31;;;;;;;4.68;2.15;;;34.00;75.50;;;;;;5030579;28;20022;-66
2022/08/04 09:50:15;;;;;;;4.45;2.30;;;34.10;74.20;;;;;;5030471;28;20449;-66
2022/08/04 09:53:00;;;;;;;4.85;2.38;;;34.30;73.90;;;;;;5030442;28;20353;-68
2022/08/04 09:55:33;;;;;;;5.22;1.95;;;;;;;;;;5030539;28;20029;-66
2022/08/04 09:57:59;;;;;;;3.28;2.10;;;;;;;;;;5048961;27;20023;-66
2022/08/04 10:00:33;;;;;;;12.60;2.10;;;34.70;70.10;;;;;;5134256;27;20072;-65
2022/08/04 10:03:01;;;;;;;5.82;2.10;;;34.90;70.20;;;;;;5134160;27;20015;-65
2022/08/04 10:06:00;;;;;;;2.80;1.90;;;35.10;69.50;;;;;;5134223;27;20019;-66
2022/08/04 10:08:37;;;;;;;2.95;1.98;;;35.20;70.50;;;;;;5133974;27;20030;-66
2022/08/04 10:11:11;;;;;;;2.22;2.03;;;35.00;68.80;;;;;;5134513;27;20023;-67
2022/08/04 10:14:06;;;;;;;3.50;1.65;;;35.40;68.10;;;;;;5132848;27;20459;-64
2022/08/04 10:16:57;;;;;;;2.08;1.85;;;35.50;68.30;;;;;;5120093;27;20378;-66
2022/08/04 10:19:28;;;;;;;1.80;1.70;;;35.10;66.00;;;;;;5134185;27;20080;-66
2022/08/04 10:21:58;;;;;;;4.03;2.00;;;;;;;;;;5134152;27;20030;-66
2022/08/04 10:24:53;;;;;;;1.70;1.60;;;35.80;65.50;;;;;;5134076;27;20329;-67
2022/08/04 10:27:42;;;;;;;5.00;1.85;;;36.00;65.30;;;;;;5133555;27;20279;-68
2022/08/04 10:30:11;;;;;;;10.55;1.92;;;36.20;65.50;;;;;;5133652;28;20043;-68
2022/08/04 10:32:54;;;;;;;5.68;1.63;;;36.70;64.10;;;;;;5134056;27;20530;-70
2022/08/04 10:35:25;;;;;;;6.30;1.75;;;37.20;62.60;;;;;;5134005;27;20019;-66
2022/08/04 10:38:28;;;;;;;66.35;4.20;;;37.40;63.70;;;;;;5133870;27;20031;-67
2022/08/04 10:41:04;;;;;;;4.70;1.60;;;38.20;61.30;;;;;;5134253;27;20027;-66
2022/08/04 10:43:47;;;;;;;6.30;1.70;;;38.40;59.70;;;;;;5133670;27;20024;-67
2022/08/04 10:46:25;;;;;;;2.03;1.80;;;39.00;59.40;;;;;;5134216;28;20038;-68
2022/08/04 10:49:03;;;;;;;1.67;1.40;;;39.50;58.20;;;;;;5133850;27;20038;-68
2022/08/04 10:51:57;;;;;;;3.10;2.05;;;39.60;57.30;;;;;;5133604;27;20502;-66
2022/08/04 10:54:42;;;;;;;8.27;1.40;;;40.30;56.60;;;;;;5133523;27;20027;-67
2022/08/04 10:57:30;;;;;;;2.92;1.77;;;40.80;55.30;;;;;;5133392;27;20392;-68
2022/08/04 11:00:01;;;;;;;3.65;1.55;;;41.50;55.40;;;;;;5131841;28;20031;-69
2022/08/04 11:02:47;;;;;;;2.70;1.20;;;42.60;60.70;;;;;;5132393;28;20023;-70
2022/08/04 11:05:31;;;;;;;3.38;1.30;;;42.70;50.60;;;;;;5133752;27;20029;-67
2022/08/04 11:08:02;;;;;;;2.92;1.38;;;;;;;;;;5132341;28;20066;-68
2022/08/04 11:10:34;;;;;;;3.60;1.60;;;43.10;89.20;;;;;;5133651;27;20015;-69
2022/08/04 11:13:09;;;;;;;1.85;1.13;;;42.40;49.10;;;;;;5133651;27;20443;-68
2022/08/04 11:15:44;;;;;;;1.40;1.10;;;;;;;;;;5132424;28;20362;-67
2022/08/04 11:18:20;;;;;;;1.80;0.95;;;43.10;48.10;;;;;;5133312;27;20023;-69
2022/08/04 11:21:01;;;;;;;3.80;1.10;;;43.70;48.20;;;;;;5137621;27;20023;-65
2022/08/04 11:23:35;;;;;;;6.88;1.33;;;44.20;48.20;;;;;;5137355;27;20027;-66
2022/08/04 11:26:08;;;;;;;1.70;1.08;;;44.30;48.00;;;;;;5135739;27;20086;-63
2022/08/04 11:29:00;;;;;;;1.38;1.20;;;43.80;46.80;;;;;;5124415;27;20058;-68
2022/08/04 11:31:30;;;;;;;1.40;1.00;;;43.10;46.60;;;;;;5031176;28;20207;-69
2022/08/04 11:34:14;;;;;;;2.67;1.30;;;43.70;65.00;;;;;;5032519;28;20033;-68
2022/08/04 11:37:02;;;;;;;3.58;1.42;;;;;;;;;;5032324;28;20038;-67
2022/08/04 11:39:44;;;;;;;0.65;0.65;;;44.50;72.40;;;;;;5031959;28;20349;-71
2022/08/04 11:42:26;;;;;;;0.88;0.60;;;44.60;44.40;;;;;;5032272;28;20054;-72
2022/08/04 11:45:06;;;;;;;1.58;0.70;;;45.20;54.10;;;;;;5032594;28;20029;-71
2022/08/04 11:47:38;;;;;;;1.13;1.00;;;45.20;43.90;;;;;;5032624;28;20037;-71
2022/08/04 11:50:07;;;;;;;3.97;1.17;;;45.70;64.10;;;;;;5032328;28;20021;-73
2022/08/04 11:52:36;;;;;;;3.72;1.80;;;44.30;85.30;;;;;;5030758;28;20073;-74
2022/08/04 11:55:07;;;;;;;4.82;1.30;;;43.90;47.00;;;;;;5032360;28;20025;-69
2022/08/04 11:57:33;;;;;;;4.88;1.40;;;42.30;47.80;;;;;;5032234;28;20113;-67
2022/08/04 12:00:01;;;;;;;4.05;1.25;;;40.90;49.00;;;;;;5032252;28;20026;-66
2022/08/04 12:03:05;;;;;;;2.72;1.70;;;40.00;50.10;;;;;;5030949;28;20026;-67
2022/08/04 12:05:41;;;;;;;2.10;1.90;;;39.00;51.10;;;;;;5032178;28;20074;-65
2022/08/04 12:08:56;;;;;;;1.77;1.42;;;38.20;52.60;;;;;;5030950;28;20583;-67
2022/08/04 12:11:39;;;;;;;1.50;1.38;;;37.20;52.70;;;;;;5025158;28;20041;-66
2022/08/04 12:14:32;;;;;;;3.08;1.60;;;36.70;52.50;;;;;;5032198;28;20056;-66
2022/08/04 12:17:05;;;;;;;3.45;1.60;;;36.60;52.90;;;;;;5030758;28;20089;-67
2022/08/04 12:19:54;;;;;;;3.05;1.70;;;36.50;54.00;;;;;;5031946;28;20025;-67
2022/08/04 12:22:26;;;;;;;2.80;1.67;;;37.30;54.50;;;;;;5031988;28;20100;-70
2022/08/04 12:25:04;;;;;;;4.22;1.45;;;41.90;50.00;;;;;;5031519;28;20398;-67
2022/08/04 12:27:39;;;;;;;6.18;1.65;;;;;;;;;;5032105;28;20041;-72
2022/08/04 12:30:06;;;;;;;1.20;1.20;;;;;;;;;;5031666;28;20034;-69
2022/08/04 12:32:36;;;;;;;2.17;1.42;;;;;;;;;;5031697;28;20021;-70
2022/08/04 12:35:17;;;;;;;1.80;1.35;;;45.90;45.40;;;;;;5030463;28;20025;-70
2022/08/04 12:38:03;;;;;;;2.20;1.40;;;;;;;;;;5031613;28;20033;-70
2022/08/04 12:40:43;;;;;;;1.13;1.13;;;47.10;53.30;;;;;;5031011;28;20014;-70
2022/08/04 12:43:09;;;;;;;;;;;;;;;;;;5032034;28;20406;-68
2022/08/04 12:45:36;;;;;;;3.80;1.65;;;;;;;;;;5031836;28;19901;-69
2022/08/04 12:48:04;;;;;;;3.33;1.33;;;;;;;;;;5031603;28;20028;-69
2022/08/04 12:50:31;;;;;;;2.83;1.38;;;;;;;;;;5031542;28;20469;-68
2022/08/04 12:52:58;;;;;;;3.83;1.17;;;46.60;78.60;;;;;;5031568;28;20022;-68
2022/08/04 12:55:28;;;;;;;4.47;1.50;;;46.80;70.80;;;;;;5030033;28;20530;-68
2022/08/04 12:57:55;;;;;;;3.63;1.48;;;;;;;;;;5029940;28;20045;-68
2022/08/04 13:00:32;;;;;;;2.92;1.30;;;48.40;56.50;;;;;;5031004;28;20016;-68
2022/08/04 13:03:02;;;;;;;1.63;1.10;;;;;;;;;;5030293;28;20029;-69
2022/08/04 13:05:30;;;;;;;2.03;1.42;;;;;;;;;;5030689;28;20025;-68
2022/08/04 13:07:57;;;;;;;1.58;1.17;;;48.10;49.90;;;;;;5031184;28;20056;-68
2022/08/04 13:10:24;;;;;;;2.30;1.42;;;46.70;66.00;;;;;;5031161;28;20040;-69
2022/08/04 13:13:01;;;;;;;9.18;1.50;;;;;;;;;;5031190;28;20105;-67
2022/08/04 13:15:29;;;;;;;1.65;1.30;;;;;;;;;;5032226;27;20012;-68
2022/08/04 13:18:03;;;;;;;5.45;1.45;;;48.20;50.50;;;;;;5030672;28;20082;-66
2022/08/04 13:20:34;;;;;;;3.63;1.48;;;49.00;43.30;;;;;;5031099;28;20028;-66
2022/08/04 13:23:08;;;;;;;2.72;1.10;;;;;;;;;;5031050;28;20029;-67
2022/08/04 13:25:39;;;;;;;3.47;1.27;;;46.80;41.80;;;;;;5030628;28;20041;-67
2022/08/04 13:28:08;;;;;;;3.67;1.60;;;;;;;;;;5030952;28;20029;-66
2022/08/04 13:30:34;;;;;;;3.05;1.58;;;;;;;;;;5031047;28;20072;-68
2022/08/04 13:33:02;;;;;;;3.55;1.55;;;;;;;;;;5030862;28;20030;-67
2022/08/04 13:35:29;;;;;;;2.08;1.45;;;;;;;;;;5030666;28;20017;-67
2022/08/04 13:37:57;;;;;;;2.97;1.75;;;46.60;42.70;;;;;;5027926;28;20030;-67
2022/08/04 13:40:26;;;;;;;2.00;1.13;;;49.70;41.80;;;;;;5030447;28;20357;-66
2022/08/04 13:42:53;;;;;;;3.00;1.60;;;;;;;;;;5029696;28;20013;-67
2022/08/04 13:45:24;;;;;;;2.00;1.15;;;49.90;39.90;;;;;;5030438;28;20021;-67
2022/08/04 13:47:51;;;;;;;2.13;1.50;;;;;;;;;;5030399;28;20074;-69
2022/08/04 13:50:26;;;;;;;5.03;1.50;;;;;;;;;;5030355;28;20022;-67
2022/08/04 13:52:54;;;;;;;5.00;1.60;;;51.70;40.50;;;;;;5030351;28;20466;-67
2022/08/04 13:55:23;;;;;;;5.38;1.52;;;;;;;;;;5026624;28;20037;-67
2022/08/04 13:57:50;;;;;;;5.90;1.40;;;;;;;;;;5053453;27;20020;-70
2022/08/04 14:00:17;;;;;;;8.35;1.70;;;;;;;;;;5028907;28;20033;-69
2022/08/04 14:02:49;;;;;;;2.20;2.00;;;52.10;39.70;;;;;;5028722;28;20330;-70
2022/08/04 14:05:24;;;;;;;8.40;1.50;;;51.70;40.50;;;;;;5030011;28;20104;-70